sensor_id;sensor_type;location;lat;lon;timestamp;P1;durP1;ratioP1;P2;durP2;ratioP2
42754;SDS011;28407;51.830;5.684;2023-02-28T00:00:37;4.53;;;3.72;;
42754;SDS011;28407;51.830;5.684;2023-02-28T00:02:41;6.13;;;4.40;;
42754;SDS011;28407;51.830;5.684;2023-02-28T00:04:43;4.80;;;4.40;;
42754;SDS011;28407;51.830;5.684;2023-02-28T00:06:43;5.20;;;4.40;;
42754;SDS011;28407;51.830;5.684;2023-02-28T00:08:44;5.18;;;4.50;;
42754;SDS011;28407;51.830;5.684;2023-02-28T00:10:45;4.85;;;4.18;;
42754;SDS011;28407;51.830;5.684;2023-02-28T00:12:55;5.13;;;4.63;;
42754;SDS011;28407;51.830;5.684;2023-02-28T00:15:00;5.07;;;4.57;;
42754;SDS011;28407;51.830;5.684;2023-02-28T00:17:01;6.85;;;4.85;;
42754;SDS011;28407;51.830;5.684;2023-02-28T00:19:02;4.95;;;4.55;;
42754;SDS011;28407;51.830;5.684;2023-02-28T00:21:03;5.10;;;4.60;;
42754;SDS011;28407;51.830;5.684;2023-02-28T00:23:04;5.85;;;4.95;;
42754;SDS011;28407;51.830;5.684;2023-02-28T00:25:05;5.38;;;4.88;;
42754;SDS011;28407;51.830;5.684;2023-02-28T00:27:07;4.60;;;4.20;;
42754;SDS011;28407;51.830;5.684;2023-02-28T00:29:08;4.68;;;4.03;;
42754;SDS011;28407;51.830;5.684;2023-02-28T00:31:09;4.93;;;4.43;;
42754;SDS011;28407;51.830;5.684;2023-02-28T00:33:10;5.60;;;5.10;;
42754;SDS011;28407;51.830;5.684;2023-02-28T00:35:11;4.97;;;4.47;;
42754;SDS011;28407;51.830;5.684;2023-02-28T00:37:15;4.95;;;4.25;;
42754;SDS011;28407;51.830;5.684;2023-02-28T00:39:15;4.53;;;4.13;;
42754;SDS011;28407;51.830;5.684;2023-02-28T00:41:16;5.22;;;4.50;;
42754;SDS011;28407;51.830;5.684;2023-02-28T00:43:17;4.45;;;4.07;;
42754;SDS011;28407;51.830;5.684;2023-02-28T00:45:18;4.43;;;4.07;;
42754;SDS011;28407;51.830;5.684;2023-02-28T00:47:19;6.18;;;4.85;;
42754;SDS011;28407;51.830;5.684;2023-02-28T00:49:20;4.03;;;3.72;;
42754;SDS011;28407;51.830;5.684;2023-02-28T00:51:20;4.43;;;4.05;;
42754;SDS011;28407;51.830;5.684;2023-02-28T00:53:21;5.13;;;4.10;;
42754;SDS011;28407;51.830;5.684;2023-02-28T00:55:22;5.95;;;5.28;;
42754;SDS011;28407;51.830;5.684;2023-02-28T00:57:23;4.32;;;3.90;;
42754;SDS011;28407;51.830;5.684;2023-02-28T00:59:23;5.30;;;4.78;;
42754;SDS011;28407;51.830;5.684;2023-02-28T01:01:24;4.55;;;4.15;;
42754;SDS011;28407;51.830;5.684;2023-02-28T01:03:25;4.38;;;3.92;;
42754;SDS011;28407;51.830;5.684;2023-02-28T01:05:25;5.40;;;4.90;;
42754;SDS011;28407;51.830;5.684;2023-02-28T01:07:27;5.53;;;4.10;;
42754;SDS011;28407;51.830;5.684;2023-02-28T01:09:27;5.00;;;4.50;;
42754;SDS011;28407;51.830;5.684;2023-02-28T01:11:28;3.90;;;3.60;;
42754;SDS011;28407;51.830;5.684;2023-02-28T01:13:29;4.82;;;4.43;;
42754;SDS011;28407;51.830;5.684;2023-02-28T01:15:29;4.40;;;3.97;;
42754;SDS011;28407;51.830;5.684;2023-02-28T01:17:31;6.95;;;4.43;;
42754;SDS011;28407;51.830;5.684;2023-02-28T01:19:34;4.90;;;4.50;;
42754;SDS011;28407;51.830;5.684;2023-02-28T01:21:36;5.22;;;4.63;;
42754;SDS011;28407;51.830;5.684;2023-02-28T01:23:37;4.80;;;4.40;;
42754;SDS011;28407;51.830;5.684;2023-02-28T01:25:39;5.72;;;5.22;;
42754;SDS011;28407;51.830;5.684;2023-02-28T01:27:40;5.07;;;4.63;;
42754;SDS011;28407;51.830;5.684;2023-02-28T01:29:41;5.88;;;5.18;;
42754;SDS011;28407;51.830;5.684;2023-02-28T01:31:43;8.00;;;4.57;;
42754;SDS011;28407;51.830;5.684;2023-02-28T01:33:44;4.40;;;4.00;;
42754;SDS011;28407;51.830;5.684;2023-02-28T01:35:44;5.20;;;4.45;;
42754;SDS011;28407;51.830;5.684;2023-02-28T01:37:45;4.60;;;4.20;;
42754;SDS011;28407;51.830;5.684;2023-02-28T01:39:46;5.38;;;4.80;;
42754;SDS011;28407;51.830;5.684;2023-02-28T01:41:46;5.50;;;4.40;;
42754;SDS011;28407;51.830;5.684;2023-02-28T01:45:48;4.55;;;4.15;;
42754;SDS011;28407;51.830;5.684;2023-02-28T01:47:50;4.78;;;4.38;;
42754;SDS011;28407;51.830;5.684;2023-02-28T01:49:54;8.25;;;6.22;;
42754;SDS011;28407;51.830;5.684;2023-02-28T01:51:55;4.90;;;4.07;;
42754;SDS011;28407;51.830;5.684;2023-02-28T01:54:00;4.00;;;3.70;;
42754;SDS011;28407;51.830;5.684;2023-02-28T01:56:05;4.50;;;4.10;;
42754;SDS011;28407;51.830;5.684;2023-02-28T01:58:08;4.82;;;4.35;;
42754;SDS011;28407;51.830;5.684;2023-02-28T02:00:12;4.57;;;4.18;;
42754;SDS011;28407;51.830;5.684;2023-02-28T02:02:20;4.35;;;3.95;;
42754;SDS011;28407;51.830;5.684;2023-02-28T02:04:23;4.68;;;3.83;;
42754;SDS011;28407;51.830;5.684;2023-02-28T02:06:39;4.00;;;3.70;;
42754;SDS011;28407;51.830;5.684;2023-02-28T02:08:44;5.18;;;4.53;;
42754;SDS011;28407;51.830;5.684;2023-02-28T02:10:45;4.57;;;4.03;;
42754;SDS011;28407;51.830;5.684;2023-02-28T02:15:28;4.97;;;4.43;;
42754;SDS011;28407;51.830;5.684;2023-02-28T02:17:57;4.85;;;4.35;;
42754;SDS011;28407;51.830;5.684;2023-02-28T02:20:14;4.55;;;4.15;;
42754;SDS011;28407;51.830;5.684;2023-02-28T02:36:21;4.72;;;4.32;;
42754;SDS011;28407;51.830;5.684;2023-02-28T02:38:37;4.40;;;4.00;;
42754;SDS011;28407;51.830;5.684;2023-02-28T02:43:11;4.78;;;4.38;;
42754;SDS011;28407;51.830;5.684;2023-02-28T02:47:23;4.78;;;4.20;;
42754;SDS011;28407;51.830;5.684;2023-02-28T02:49:28;4.40;;;4.00;;
42754;SDS011;28407;51.830;5.684;2023-02-28T02:51:31;4.25;;;3.85;;
42754;SDS011;28407;51.830;5.684;2023-02-28T02:53:35;4.50;;;3.83;;
42754;SDS011;28407;51.830;5.684;2023-02-28T02:55:42;4.15;;;3.75;;
42754;SDS011;28407;51.830;5.684;2023-02-28T02:57:47;5.20;;;4.40;;
42754;SDS011;28407;51.830;5.684;2023-02-28T02:59:54;5.68;;;4.45;;
42754;SDS011;28407;51.830;5.684;2023-02-28T03:01:57;5.43;;;4.45;;
42754;SDS011;28407;51.830;5.684;2023-02-28T03:04:02;4.63;;;4.22;;
42754;SDS011;28407;51.830;5.684;2023-02-28T03:06:05;4.70;;;4.30;;
42754;SDS011;28407;51.830;5.684;2023-02-28T03:08:06;4.30;;;3.90;;
42754;SDS011;28407;51.830;5.684;2023-02-28T03:10:26;4.40;;;4.00;;
42754;SDS011;28407;51.830;5.684;2023-02-28T03:12:39;5.15;;;4.28;;
42754;SDS011;28407;51.830;5.684;2023-02-28T03:14:50;4.43;;;4.03;;
42754;SDS011;28407;51.830;5.684;2023-02-28T03:21:38;6.95;;;4.70;;
42754;SDS011;28407;51.830;5.684;2023-02-28T03:25:59;4.50;;;4.10;;
42754;SDS011;28407;51.830;5.684;2023-02-28T03:30:33;4.50;;;4.10;;
42754;SDS011;28407;51.830;5.684;2023-02-28T03:32:40;5.18;;;4.68;;
42754;SDS011;28407;51.830;5.684;2023-02-28T03:34:56;5.15;;;4.63;;
42754;SDS011;28407;51.830;5.684;2023-02-28T03:37:12;4.60;;;4.20;;
42754;SDS011;28407;51.830;5.684;2023-02-28T03:39:20;4.80;;;4.40;;
42754;SDS011;28407;51.830;5.684;2023-02-28T03:41:48;4.93;;;4.40;;
42754;SDS011;28407;51.830;5.684;2023-02-28T03:44:01;5.10;;;4.20;;
42754;SDS011;28407;51.830;5.684;2023-02-28T03:46:07;5.53;;;4.68;;
42754;SDS011;28407;51.830;5.684;2023-02-28T03:48:13;4.88;;;4.47;;
42754;SDS011;28407;51.830;5.684;2023-02-28T03:50:22;5.22;;;4.72;;
42754;SDS011;28407;51.830;5.684;2023-02-28T03:52:34;4.50;;;4.10;;
42754;SDS011;28407;51.830;5.684;2023-02-28T03:54:56;5.00;;;4.53;;
42754;SDS011;28407;51.830;5.684;2023-02-28T03:57:05;6.20;;;4.38;;
42754;SDS011;28407;51.830;5.684;2023-02-28T03:59:23;4.05;;;3.67;;
42754;SDS011;28407;51.830;5.684;2023-02-28T04:01:32;4.70;;;3.97;;
42754;SDS011;28407;51.830;5.684;2023-02-28T04:03:41;4.80;;;4.40;;
42754;SDS011;28407;51.830;5.684;2023-02-28T04:05:52;5.75;;;4.22;;
42754;SDS011;28407;51.830;5.684;2023-02-28T04:07:54;4.72;;;3.88;;
42754;SDS011;28407;51.830;5.684;2023-02-28T04:10:04;4.47;;;4.10;;
42754;SDS011;28407;51.830;5.684;2023-02-28T04:12:05;5.00;;;4.60;;
42754;SDS011;28407;51.830;5.684;2023-02-28T04:14:06;5.55;;;4.43;;
42754;SDS011;28407;51.830;5.684;2023-02-28T04:16:08;4.90;;;4.50;;
42754;SDS011;28407;51.830;5.684;2023-02-28T04:18:12;4.65;;;4.25;;
42754;SDS011;28407;51.830;5.684;2023-02-28T04:20:12;4.80;;;4.38;;
42754;SDS011;28407;51.830;5.684;2023-02-28T04:22:13;4.90;;;4.38;;
42754;SDS011;28407;51.830;5.684;2023-02-28T04:24:15;4.97;;;4.28;;
42754;SDS011;28407;51.830;5.684;2023-02-28T04:26:20;5.68;;;4.38;;
42754;SDS011;28407;51.830;5.684;2023-02-28T04:28:21;4.82;;;4.38;;
42754;SDS011;28407;51.830;5.684;2023-02-28T04:30:22;5.10;;;4.60;;
42754;SDS011;28407;51.830;5.684;2023-02-28T04:32:22;5.10;;;4.60;;
42754;SDS011;28407;51.830;5.684;2023-02-28T04:34:23;4.68;;;4.18;;
42754;SDS011;28407;51.830;5.684;2023-02-28T04:36:25;5.35;;;4.85;;
42754;SDS011;28407;51.830;5.684;2023-02-28T04:38:26;5.20;;;4.70;;
42754;SDS011;28407;51.830;5.684;2023-02-28T04:40:26;4.45;;;4.05;;
42754;SDS011;28407;51.830;5.684;2023-02-28T04:42:27;4.78;;;4.32;;
42754;SDS011;28407;51.830;5.684;2023-02-28T04:44:35;4.80;;;4.30;;
42754;SDS011;28407;51.830;5.684;2023-02-28T04:46:35;5.55;;;4.75;;
42754;SDS011;28407;51.830;5.684;2023-02-28T04:48:37;4.40;;;4.00;;
42754;SDS011;28407;51.830;5.684;2023-02-28T04:50:38;4.85;;;4.30;;
42754;SDS011;28407;51.830;5.684;2023-02-28T04:52:39;5.70;;;4.07;;
42754;SDS011;28407;51.830;5.684;2023-02-28T04:54:39;4.40;;;4.00;;
42754;SDS011;28407;51.830;5.684;2023-02-28T04:56:40;4.80;;;4.22;;
42754;SDS011;28407;51.830;5.684;2023-02-28T04:58:41;5.80;;;4.68;;
42754;SDS011;28407;51.830;5.684;2023-02-28T05:00:42;4.93;;;4.38;;
42754;SDS011;28407;51.830;5.684;2023-02-28T05:02:43;4.43;;;4.03;;
42754;SDS011;28407;51.830;5.684;2023-02-28T05:04:43;5.50;;;3.70;;
42754;SDS011;28407;51.830;5.684;2023-02-28T05:06:44;5.10;;;4.60;;
42754;SDS011;28407;51.830;5.684;2023-02-28T05:08:45;4.25;;;3.85;;
42754;SDS011;28407;51.830;5.684;2023-02-28T05:10:46;4.63;;;4.00;;
42754;SDS011;28407;51.830;5.684;2023-02-28T05:12:46;5.80;;;4.57;;
42754;SDS011;28407;51.830;5.684;2023-02-28T05:14:48;4.85;;;4.45;;
42754;SDS011;28407;51.830;5.684;2023-02-28T05:16:48;4.38;;;3.92;;
42754;SDS011;28407;51.830;5.684;2023-02-28T05:18:49;4.10;;;3.80;;
42754;SDS011;28407;51.830;5.684;2023-02-28T05:20:49;5.20;;;4.18;;
42754;SDS011;28407;51.830;5.684;2023-02-28T05:22:50;5.75;;;4.10;;
42754;SDS011;28407;51.830;5.684;2023-02-28T05:26:53;4.38;;;3.97;;
42754;SDS011;28407;51.830;5.684;2023-02-28T05:28:54;4.70;;;4.20;;
42754;SDS011;28407;51.830;5.684;2023-02-28T05:30:55;4.63;;;4.20;;
42754;SDS011;28407;51.830;5.684;2023-02-28T05:32:56;4.57;;;4.18;;
42754;SDS011;28407;51.830;5.684;2023-02-28T05:34:57;4.63;;;3.78;;
42754;SDS011;28407;51.830;5.684;2023-02-28T05:36:57;4.70;;;4.30;;
42754;SDS011;28407;51.830;5.684;2023-02-28T05:38:58;3.90;;;3.60;;
42754;SDS011;28407;51.830;5.684;2023-02-28T05:40:59;3.88;;;3.53;;
42754;SDS011;28407;51.830;5.684;2023-02-28T05:42:59;5.30;;;4.03;;
42754;SDS011;28407;51.830;5.684;2023-02-28T05:45:00;4.82;;;4.43;;
42754;SDS011;28407;51.830;5.684;2023-02-28T05:47:01;4.10;;;3.75;;
42754;SDS011;28407;51.830;5.684;2023-02-28T05:49:02;3.40;;;3.15;;
42754;SDS011;28407;51.830;5.684;2023-02-28T05:51:04;3.95;;;3.60;;
42754;SDS011;28407;51.830;5.684;2023-02-28T05:53:05;4.22;;;3.83;;
42754;SDS011;28407;51.830;5.684;2023-02-28T05:55:06;4.18;;;3.88;;
42754;SDS011;28407;51.830;5.684;2023-02-28T05:57:07;4.05;;;3.70;;
42754;SDS011;28407;51.830;5.684;2023-02-28T05:59:07;3.47;;;3.17;;
42754;SDS011;28407;51.830;5.684;2023-02-28T06:01:24;19.20;;;4.75;;
42754;SDS011;28407;51.830;5.684;2023-02-28T06:03:48;3.92;;;3.63;;
42754;SDS011;28407;51.830;5.684;2023-02-28T06:05:48;3.50;;;3.20;;
42754;SDS011;28407;51.830;5.684;2023-02-28T06:07:50;3.72;;;3.42;;
42754;SDS011;28407;51.830;5.684;2023-02-28T06:09:50;3.95;;;3.30;;
42754;SDS011;28407;51.830;5.684;2023-02-28T06:11:51;3.50;;;3.00;;
42754;SDS011;28407;51.830;5.684;2023-02-28T06:13:55;5.85;;;3.30;;
42754;SDS011;28407;51.830;5.684;2023-02-28T06:16:00;3.40;;;3.20;;
42754;SDS011;28407;51.830;5.684;2023-02-28T06:18:01;3.47;;;3.17;;
42754;SDS011;28407;51.830;5.684;2023-02-28T06:20:02;3.20;;;3.00;;
42754;SDS011;28407;51.830;5.684;2023-02-28T06:22:03;3.50;;;3.20;;
42754;SDS011;28407;51.830;5.684;2023-02-28T06:24:03;3.20;;;3.00;;
42754;SDS011;28407;51.830;5.684;2023-02-28T06:26:05;3.20;;;3.00;;
42754;SDS011;28407;51.830;5.684;2023-02-28T06:28:05;2.85;;;2.65;;
42754;SDS011;28407;51.830;5.684;2023-02-28T06:30:06;3.92;;;3.63;;
42754;SDS011;28407;51.830;5.684;2023-02-28T06:32:07;3.60;;;3.33;;
42754;SDS011;28407;51.830;5.684;2023-02-28T06:34:08;3.63;;;3.33;;
42754;SDS011;28407;51.830;5.684;2023-02-28T06:36:12;3.53;;;3.22;;
42754;SDS011;28407;51.830;5.684;2023-02-28T06:38:14;3.40;;;3.10;;
42754;SDS011;28407;51.830;5.684;2023-02-28T06:40:14;3.20;;;3.00;;
42754;SDS011;28407;51.830;5.684;2023-02-28T06:42:15;3.53;;;3.10;;
42754;SDS011;28407;51.830;5.684;2023-02-28T06:44:16;3.55;;;3.25;;
42754;SDS011;28407;51.830;5.684;2023-02-28T06:46:17;3.30;;;3.10;;
42754;SDS011;28407;51.830;5.684;2023-02-28T06:48:19;3.67;;;3.38;;
42754;SDS011;28407;51.830;5.684;2023-02-28T06:50:19;3.35;;;2.90;;
42754;SDS011;28407;51.830;5.684;2023-02-28T06:52:20;3.33;;;3.13;;
42754;SDS011;28407;51.830;5.684;2023-02-28T06:54:21;3.28;;;3.08;;
42754;SDS011;28407;51.830;5.684;2023-02-28T06:56:22;3.53;;;3.22;;
42754;SDS011;28407;51.830;5.684;2023-02-28T06:58:23;3.47;;;3.17;;
42754;SDS011;28407;51.830;5.684;2023-02-28T07:00:24;3.40;;;3.20;;
42754;SDS011;28407;51.830;5.684;2023-02-28T07:02:25;3.10;;;2.90;;
42754;SDS011;28407;51.830;5.684;2023-02-28T07:04:28;3.22;;;2.92;;
42754;SDS011;28407;51.830;5.684;2023-02-28T07:06:28;3.83;;;2.97;;
42754;SDS011;28407;51.830;5.684;2023-02-28T07:08:29;3.03;;;2.83;;
42754;SDS011;28407;51.830;5.684;2023-02-28T07:12:32;3.45;;;2.97;;
42754;SDS011;28407;51.830;5.684;2023-02-28T07:14:33;3.00;;;2.80;;
42754;SDS011;28407;51.830;5.684;2023-02-28T07:16:36;3.60;;;3.30;;
42754;SDS011;28407;51.830;5.684;2023-02-28T07:18:37;3.75;;;2.90;;
42754;SDS011;28407;51.830;5.684;2023-02-28T07:20:38;3.88;;;3.58;;
42754;SDS011;28407;51.830;5.684;2023-02-28T07:22:39;3.38;;;3.08;;
42754;SDS011;28407;51.830;5.684;2023-02-28T07:24:39;3.72;;;3.00;;
42754;SDS011;28407;51.830;5.684;2023-02-28T07:26:40;3.28;;;3.08;;
42754;SDS011;28407;51.830;5.684;2023-02-28T07:28:41;3.60;;;3.30;;
42754;SDS011;28407;51.830;5.684;2023-02-28T07:30:42;4.22;;;3.22;;
42754;SDS011;28407;51.830;5.684;2023-02-28T07:32:43;3.92;;;3.60;;
42754;SDS011;28407;51.830;5.684;2023-02-28T07:34:44;4.15;;;3.75;;
42754;SDS011;28407;51.830;5.684;2023-02-28T07:36:45;3.90;;;3.50;;
42754;SDS011;28407;51.830;5.684;2023-02-28T07:38:46;3.47;;;3.22;;
42754;SDS011;28407;51.830;5.684;2023-02-28T07:40:49;3.95;;;3.20;;
42754;SDS011;28407;51.830;5.684;2023-02-28T07:42:50;3.70;;;3.40;;
42754;SDS011;28407;51.830;5.684;2023-02-28T07:44:51;3.40;;;3.15;;
42754;SDS011;28407;51.830;5.684;2023-02-28T07:46:53;4.10;;;3.22;;
42754;SDS011;28407;51.830;5.684;2023-02-28T07:48:53;4.13;;;3.15;;
42754;SDS011;28407;51.830;5.684;2023-02-28T07:50:55;4.43;;;3.45;;
42754;SDS011;28407;51.830;5.684;2023-02-28T07:52:59;3.83;;;3.53;;
42754;SDS011;28407;51.830;5.684;2023-02-28T07:55:00;4.00;;;3.60;;
42754;SDS011;28407;51.830;5.684;2023-02-28T07:57:00;3.45;;;3.15;;
42754;SDS011;28407;51.830;5.684;2023-02-28T07:59:01;4.28;;;3.88;;
42754;SDS011;28407;51.830;5.684;2023-02-28T08:01:08;3.70;;;3.40;;
42754;SDS011;28407;51.830;5.684;2023-02-28T08:03:11;6.10;;;3.83;;
42754;SDS011;28407;51.830;5.684;2023-02-28T08:05:12;4.53;;;4.13;;
42754;SDS011;28407;51.830;5.684;2023-02-28T08:07:13;4.32;;;3.92;;
42754;SDS011;28407;51.830;5.684;2023-02-28T08:09:14;3.78;;;3.47;;
42754;SDS011;28407;51.830;5.684;2023-02-28T08:11:15;4.20;;;3.80;;
42754;SDS011;28407;51.830;5.684;2023-02-28T08:13:16;4.50;;;4.00;;
42754;SDS011;28407;51.830;5.684;2023-02-28T08:15:18;4.28;;;3.95;;
42754;SDS011;28407;51.830;5.684;2023-02-28T08:17:18;4.07;;;3.33;;
42754;SDS011;28407;51.830;5.684;2023-02-28T08:19:19;4.00;;;3.60;;
42754;SDS011;28407;51.830;5.684;2023-02-28T08:21:20;4.50;;;4.20;;
42754;SDS011;28407;51.830;5.684;2023-02-28T08:23:21;4.47;;;4.15;;
42754;SDS011;28407;51.830;5.684;2023-02-28T08:25:22;4.15;;;3.80;;
42754;SDS011;28407;51.830;5.684;2023-02-28T08:27:22;4.00;;;3.40;;
42754;SDS011;28407;51.830;5.684;2023-02-28T08:29:23;4.45;;;4.05;;
42754;SDS011;28407;51.830;5.684;2023-02-28T08:31:24;4.47;;;4.10;;
42754;SDS011;28407;51.830;5.684;2023-02-28T08:33:25;4.00;;;3.40;;
42754;SDS011;28407;51.830;5.684;2023-02-28T08:35:27;3.95;;;3.65;;
42754;SDS011;28407;51.830;5.684;2023-02-28T08:37:27;3.33;;;3.08;;
42754;SDS011;28407;51.830;5.684;2023-02-28T08:39:28;3.40;;;3.10;;
42754;SDS011;28407;51.830;5.684;2023-02-28T08:41:29;3.80;;;3.50;;
42754;SDS011;28407;51.830;5.684;2023-02-28T08:43:29;3.72;;;3.42;;
42754;SDS011;28407;51.830;5.684;2023-02-28T08:45:30;3.95;;;3.65;;
42754;SDS011;28407;51.830;5.684;2023-02-28T08:47:31;3.50;;;3.30;;
42754;SDS011;28407;51.830;5.684;2023-02-28T08:49:32;3.50;;;3.20;;
42754;SDS011;28407;51.830;5.684;2023-02-28T08:51:32;3.20;;;2.95;;
42754;SDS011;28407;51.830;5.684;2023-02-28T08:53:33;3.90;;;3.22;;
42754;SDS011;28407;51.830;5.684;2023-02-28T08:55:35;3.25;;;3.05;;
42754;SDS011;28407;51.830;5.684;2023-02-28T08:57:36;3.53;;;3.22;;
42754;SDS011;28407;51.830;5.684;2023-02-28T08:59:37;3.55;;;3.25;;
42754;SDS011;28407;51.830;5.684;2023-02-28T09:01:38;3.22;;;3.03;;
42754;SDS011;28407;51.830;5.684;2023-02-28T09:03:39;3.85;;;3.55;;
42754;SDS011;28407;51.830;5.684;2023-02-28T09:05:41;3.60;;;3.30;;
42754;SDS011;28407;51.830;5.684;2023-02-28T09:07:51;3.95;;;3.65;;
42754;SDS011;28407;51.830;5.684;2023-02-28T09:09:51;3.63;;;3.33;;
42754;SDS011;28407;51.830;5.684;2023-02-28T09:11:55;3.45;;;3.15;;
42754;SDS011;28407;51.830;5.684;2023-02-28T09:13:57;3.97;;;3.50;;
42754;SDS011;28407;51.830;5.684;2023-02-28T09:16:00;3.75;;;3.45;;
42754;SDS011;28407;51.830;5.684;2023-02-28T09:18:02;3.47;;;3.17;;
42754;SDS011;28407;51.830;5.684;2023-02-28T09:20:03;4.93;;;4.43;;
42754;SDS011;28407;51.830;5.684;2023-02-28T09:22:04;3.53;;;3.22;;
42754;SDS011;28407;51.830;5.684;2023-02-28T09:24:05;3.40;;;3.20;;
42754;SDS011;28407;51.830;5.684;2023-02-28T09:26:06;3.17;;;2.97;;
42754;SDS011;28407;51.830;5.684;2023-02-28T09:28:07;3.15;;;2.95;;
42754;SDS011;28407;51.830;5.684;2023-02-28T09:30:07;3.40;;;3.20;;
42754;SDS011;28407;51.830;5.684;2023-02-28T09:32:08;3.50;;;3.22;;
42754;SDS011;28407;51.830;5.684;2023-02-28T09:34:09;3.85;;;3.55;;
42754;SDS011;28407;51.830;5.684;2023-02-28T09:36:10;3.17;;;2.90;;
42754;SDS011;28407;51.830;5.684;2023-02-28T09:38:10;3.35;;;3.15;;
42754;SDS011;28407;51.830;5.684;2023-02-28T09:40:11;3.63;;;3.33;;
42754;SDS011;28407;51.830;5.684;2023-02-28T09:42:17;3.40;;;3.20;;
42754;SDS011;28407;51.830;5.684;2023-02-28T09:46:34;3.10;;;2.90;;
42754;SDS011;28407;51.830;5.684;2023-02-28T09:48:44;3.10;;;2.90;;
42754;SDS011;28407;51.830;5.684;2023-02-28T09:50:51;3.53;;;3.22;;
42754;SDS011;28407;51.830;5.684;2023-02-28T09:52:56;3.25;;;3.05;;
42754;SDS011;28407;51.830;5.684;2023-02-28T09:55:00;3.38;;;3.08;;
42754;SDS011;28407;51.830;5.684;2023-02-28T10:04:47;3.55;;;3.25;;
42754;SDS011;28407;51.830;5.684;2023-02-28T10:06:55;3.63;;;3.33;;
42754;SDS011;28407;51.830;5.684;2023-02-28T10:11:01;3.50;;;3.30;;
42754;SDS011;28407;51.830;5.684;2023-02-28T10:13:11;4.72;;;4.18;;
42754;SDS011;28407;51.830;5.684;2023-02-28T10:15:24;3.92;;;3.63;;
42754;SDS011;28407;51.830;5.684;2023-02-28T10:17:31;3.35;;;3.08;;
42754;SDS011;28407;51.830;5.684;2023-02-28T10:19:54;3.60;;;3.30;;
42754;SDS011;28407;51.830;5.684;2023-02-28T10:21:58;3.55;;;3.22;;
42754;SDS011;28407;51.830;5.684;2023-02-28T10:24:02;4.15;;;3.80;;
42754;SDS011;28407;51.830;5.684;2023-02-28T10:26:24;3.65;;;3.35;;
42754;SDS011;28407;51.830;5.684;2023-02-28T10:28:29;4.43;;;3.53;;
42754;SDS011;28407;51.830;5.684;2023-02-28T10:30:30;3.60;;;3.28;;
42754;SDS011;28407;51.830;5.684;2023-02-28T10:32:35;3.53;;;3.22;;
42754;SDS011;28407;51.830;5.684;2023-02-28T10:34:38;3.70;;;3.40;;
42754;SDS011;28407;51.830;5.684;2023-02-28T10:36:38;3.55;;;3.33;;
42754;SDS011;28407;51.830;5.684;2023-02-28T10:38:40;3.50;;;3.20;;
42754;SDS011;28407;51.830;5.684;2023-02-28T10:40:41;3.50;;;3.20;;
42754;SDS011;28407;51.830;5.684;2023-02-28T10:42:41;3.95;;;3.47;;
42754;SDS011;28407;51.830;5.684;2023-02-28T10:44:42;3.60;;;3.30;;
42754;SDS011;28407;51.830;5.684;2023-02-28T10:46:42;3.65;;;3.35;;
42754;SDS011;28407;51.830;5.684;2023-02-28T10:48:44;3.72;;;3.42;;
42754;SDS011;28407;51.830;5.684;2023-02-28T10:50:51;3.30;;;3.10;;
42754;SDS011;28407;51.830;5.684;2023-02-28T10:52:54;3.53;;;3.20;;
42754;SDS011;28407;51.830;5.684;2023-02-28T10:54:58;3.63;;;3.33;;
42754;SDS011;28407;51.830;5.684;2023-02-28T10:57:17;3.45;;;3.25;;
42754;SDS011;28407;51.830;5.684;2023-02-28T10:59:26;3.20;;;3.00;;
42754;SDS011;28407;51.830;5.684;2023-02-28T11:01:42;3.63;;;3.33;;
42754;SDS011;28407;51.830;5.684;2023-02-28T11:03:52;4.15;;;3.85;;
42754;SDS011;28407;51.830;5.684;2023-02-28T11:05:53;3.83;;;3.53;;
42754;SDS011;28407;51.830;5.684;2023-02-28T11:07:54;3.47;;;3.17;;
42754;SDS011;28407;51.830;5.684;2023-02-28T11:09:57;3.60;;;3.30;;
42754;SDS011;28407;51.830;5.684;2023-02-28T11:11:58;3.63;;;3.33;;
42754;SDS011;28407;51.830;5.684;2023-02-28T11:14:04;3.30;;;3.10;;
42754;SDS011;28407;51.830;5.684;2023-02-28T11:16:09;3.45;;;3.15;;
42754;SDS011;28407;51.830;5.684;2023-02-28T11:20:18;3.53;;;3.22;;
42754;SDS011;28407;51.830;5.684;2023-02-28T11:22:24;3.83;;;3.50;;
42754;SDS011;28407;51.830;5.684;2023-02-28T11:24:35;3.50;;;3.20;;
42754;SDS011;28407;51.830;5.684;2023-02-28T11:26:48;3.85;;;3.42;;
42754;SDS011;28407;51.830;5.684;2023-02-28T11:28:49;3.67;;;3.38;;
42754;SDS011;28407;51.830;5.684;2023-02-28T11:33:21;3.40;;;3.20;;
42754;SDS011;28407;51.830;5.684;2023-02-28T11:35:31;3.53;;;3.22;;
42754;SDS011;28407;51.830;5.684;2023-02-28T11:37:36;3.58;;;3.28;;
42754;SDS011;28407;51.830;5.684;2023-02-28T11:41:55;3.70;;;3.40;;
42754;SDS011;28407;51.830;5.684;2023-02-28T11:46:18;3.80;;;3.33;;
42754;SDS011;28407;51.830;5.684;2023-02-28T11:50:45;4.07;;;3.78;;
42754;SDS011;28407;51.830;5.684;2023-02-28T11:53:01;4.10;;;3.80;;
42754;SDS011;28407;51.830;5.684;2023-02-28T11:55:21;3.78;;;3.47;;
42754;SDS011;28407;51.830;5.684;2023-02-28T12:00:01;4.95;;;3.95;;
42754;SDS011;28407;51.830;5.684;2023-02-28T12:02:23;3.80;;;3.50;;
42754;SDS011;28407;51.830;5.684;2023-02-28T12:04:33;3.92;;;3.58;;
42754;SDS011;28407;51.830;5.684;2023-02-28T12:07:08;3.50;;;3.20;;
42754;SDS011;28407;51.830;5.684;2023-02-28T12:15:28;4.20;;;3.80;;
42754;SDS011;28407;51.830;5.684;2023-02-28T12:22:22;3.53;;;3.22;;
42754;SDS011;28407;51.830;5.684;2023-02-28T12:27:16;3.88;;;3.50;;
42754;SDS011;28407;51.830;5.684;2023-02-28T12:29:28;3.80;;;3.50;;
42754;SDS011;28407;51.830;5.684;2023-02-28T12:31:32;3.65;;;3.00;;
42754;SDS011;28407;51.830;5.684;2023-02-28T12:33:42;7.88;;;3.50;;
42754;SDS011;28407;51.830;5.684;2023-02-28T12:35:51;4.07;;;3.72;;
42754;SDS011;28407;51.830;5.684;2023-02-28T12:37:59;4.15;;;3.58;;
42754;SDS011;28407;51.830;5.684;2023-02-28T12:40:08;3.72;;;3.30;;
42754;SDS011;28407;51.830;5.684;2023-02-28T12:42:17;3.70;;;3.40;;
42754;SDS011;28407;51.830;5.684;2023-02-28T12:46:35;3.40;;;3.10;;
42754;SDS011;28407;51.830;5.684;2023-02-28T12:48:53;3.50;;;3.20;;
42754;SDS011;28407;51.830;5.684;2023-02-28T12:50:57;3.58;;;3.28;;
42754;SDS011;28407;51.830;5.684;2023-02-28T12:53:00;3.75;;;3.45;;
42754;SDS011;28407;51.830;5.684;2023-02-28T12:55:14;4.05;;;3.30;;
42754;SDS011;28407;51.830;5.684;2023-02-28T13:04:15;3.60;;;3.30;;
42754;SDS011;28407;51.830;5.684;2023-02-28T13:09:02;3.33;;;3.03;;
42754;SDS011;28407;51.830;5.684;2023-02-28T13:11:04;3.33;;;3.10;;
42754;SDS011;28407;51.830;5.684;2023-02-28T13:13:05;3.33;;;3.03;;
42754;SDS011;28407;51.830;5.684;2023-02-28T13:15:16;3.20;;;2.90;;
42754;SDS011;28407;51.830;5.684;2023-02-28T13:17:24;4.03;;;3.72;;
42754;SDS011;28407;51.830;5.684;2023-02-28T13:19:26;3.30;;;3.10;;
42754;SDS011;28407;51.830;5.684;2023-02-28T13:21:29;3.63;;;3.33;;
42754;SDS011;28407;51.830;5.684;2023-02-28T13:25:51;6.03;;;3.85;;
42754;SDS011;28407;51.830;5.684;2023-02-28T13:27:53;2.83;;;2.63;;
42754;SDS011;28407;51.830;5.684;2023-02-28T13:29:56;3.05;;;2.85;;
42754;SDS011;28407;51.830;5.684;2023-02-28T13:34:15;3.08;;;2.80;;
42754;SDS011;28407;51.830;5.684;2023-02-28T13:38:23;3.50;;;3.20;;
42754;SDS011;28407;51.830;5.684;2023-02-28T13:49:19;3.22;;;2.90;;
42754;SDS011;28407;51.830;5.684;2023-02-28T13:51:36;3.40;;;3.10;;
42754;SDS011;28407;51.830;5.684;2023-02-28T13:53:53;3.30;;;3.00;;
42754;SDS011;28407;51.830;5.684;2023-02-28T13:58:16;3.35;;;3.05;;
42754;SDS011;28407;51.830;5.684;2023-02-28T14:03:18;2.80;;;2.60;;
42754;SDS011;28407;51.830;5.684;2023-02-28T14:05:28;3.10;;;2.90;;
42754;SDS011;28407;51.830;5.684;2023-02-28T14:07:43;3.00;;;2.70;;
42754;SDS011;28407;51.830;5.684;2023-02-28T14:09:59;3.13;;;2.85;;
42754;SDS011;28407;51.830;5.684;2023-02-28T14:16:47;3.10;;;2.80;;
42754;SDS011;28407;51.830;5.684;2023-02-28T14:18:51;3.30;;;3.00;;
42754;SDS011;28407;51.830;5.684;2023-02-28T14:21:09;3.03;;;2.83;;